Terminal Aerodrome Forecast
Issued by NWS

Home | Current Version | Previous Version | Graphics & Text | Print | Product List | Glossary On
Versions: 1 2 3 4 5 6 7 8 9 10 11 12 13 14 15 16
000
FTUS41 KCLE 271100
TAFFDY
TAF
KFDY 271140Z 2712/2812 07005KT P6SM BKN250
     FM280300 VRB03KT P6SM SCT250
      TEMPO 2808/2812 3SM BR=

USA.gov is the U.S. government's official web portal to all federal, state and local government web resources and services.